Time;durP1;ratioP1;P1;durP2;ratioP2;P2;SDS_P1;SDS_P2;PMS_P1;PMS_P2;Temp;Humidity;BMP_temperature;BMP_pressure;BME280_temperature;BME280_humidity;BME280_pressure;Samples;Min_cycle;Max_cycle;Signal;HPM_P1;HPM_P2
2022/04/09 00:02:21;;;;;;;3.30;2.90;;;0.70;99.90;;;-0.72;100.00;96006.16;5042263;28;20530;-72
2022/04/09 00:04:48;;;;;;;3.13;2.83;;;0.70;99.90;;;-0.65;100.00;96020.31;5040348;28;21087;-72
2022/04/09 00:07:15;;;;;;;3.30;3.00;;;0.70;99.90;;;-0.76;100.00;96021.69;5043556;28;20458;-72
2022/04/09 00:09:42;;;;;;;2.87;2.67;;;0.70;99.90;;;-0.78;100.00;96028.97;5052758;28;20918;-72
2022/04/09 00:12:10;;;;;;;2.77;2.57;;;0.70;99.90;;;-0.92;100.00;95998.91;5044604;28;20474;-72
2022/04/09 00:14:37;;;;;;;2.87;2.67;;;0.70;99.90;;;-1.44;100.00;95943.44;5042453;28;20476;-73
2022/04/09 00:17:08;;;;;;;3.20;2.20;;;0.70;99.90;;;-0.73;100.00;96054.94;5037317;28;20576;-73
2022/04/09 00:19:37;;;;;;;2.23;2.03;;;0.70;99.90;;;-0.70;100.00;96059.03;5039707;28;20507;-73
2022/04/09 00:22:04;;;;;;;2.20;2.00;;;0.70;99.90;;;-0.79;100.00;96055.72;5036403;28;20551;-73
2022/04/09 00:24:31;;;;;;;2.73;2.53;;;0.70;99.90;;;-0.69;100.00;96085.34;5035751;28;21063;-73
2022/04/09 00:26:58;;;;;;;2.70;2.50;;;0.70;99.90;;;-0.80;100.00;96086.69;5055685;28;20968;-74
2022/04/09 00:29:26;;;;;;;2.90;2.60;;;0.70;99.90;;;-0.83;100.00;96103.00;5040816;28;20454;-74
2022/04/09 00:31:53;;;;;;;3.87;2.60;;;0.60;99.90;;;-0.86;100.00;96098.06;5048200;28;20554;-72
2022/04/09 00:34:20;;;;;;;2.37;2.27;;;0.60;99.90;;;-0.77;100.00;96110.19;5045715;28;20561;-72
2022/04/09 00:36:48;;;;;;;3.77;2.30;;;0.60;99.90;;;-0.87;100.00;96102.53;5043396;28;20573;-72
2022/04/09 00:39:15;;;;;;;3.57;2.37;;;0.60;99.90;;;-0.87;100.00;96097.25;5044725;28;20503;-73
2022/04/09 00:41:47;;;;;;;2.40;2.20;;;0.60;99.90;;;-0.78;100.00;96128.94;5049894;28;20457;-71
2022/04/09 00:44:18;;;;;;;3.43;2.27;;;0.70;99.90;;;-0.91;100.00;96105.75;5040210;28;20479;-73
2022/04/09 00:46:45;;;;;;;4.73;2.90;;;0.70;99.90;;;-0.81;100.00;96126.69;5038384;28;20994;-72
2022/04/09 00:49:13;;;;;;;3.43;3.13;;;0.60;99.90;;;-0.88;100.00;96139.88;5037165;28;20495;-74
2022/04/09 00:51:43;;;;;;;3.90;3.30;;;0.60;99.90;;;-0.82;100.00;96167.47;5034629;28;20454;-71
2022/04/09 00:54:13;;;;;;;3.73;3.23;;;0.60;99.90;;;-0.82;100.00;96178.09;5037267;28;20469;-74
2022/04/09 00:56:42;;;;;;;16.10;5.20;;;0.60;99.90;;;-0.90;100.00;96179.84;5043633;28;20559;-72
2022/04/09 00:59:11;;;;;;;23.33;12.10;;;0.60;99.90;;;-0.59;100.00;96225.66;5046938;28;20527;-74
2022/04/09 01:01:40;;;;;;;24.37;11.90;;;0.70;99.90;;;-0.65;100.00;96237.84;5040306;28;20549;-72
2022/04/09 01:04:10;;;;;;;17.17;10.40;;;0.80;99.90;;;-0.67;100.00;96229.25;5041039;28;20454;-72
2022/04/09 01:06:38;;;;;;;19.93;9.23;;;0.70;99.90;;;-0.70;100.00;96234.09;5037243;28;20453;-72
2022/04/09 01:09:07;;;;;;;22.10;9.87;;;0.80;99.90;;;-0.65;100.00;96248.44;5043296;28;20624;-74
2022/04/09 01:11:36;;;;;;;22.33;9.90;;;0.80;99.90;;;-0.67;100.00;96262.91;5043606;28;20473;-72
2022/04/09 01:14:03;;;;;;;17.43;8.53;;;0.80;99.90;;;-0.71;100.00;96249.19;5045857;28;20492;-70
2022/04/09 01:16:30;;;;;;;7.03;4.80;;;0.70;99.90;;;-0.69;100.00;96263.06;5046662;28;20508;-71
2022/04/09 01:18:59;;;;;;;6.57;4.70;;;0.80;99.90;;;-0.60;100.00;96251.34;5061581;28;20466;-68
2022/04/09 01:21:27;;;;;;;4.50;3.40;;;0.80;99.90;;;-0.69;100.00;96263.06;5046095;28;21031;-69
2022/04/09 01:23:56;;;;;;;4.60;4.00;;;0.80;99.90;;;-0.71;100.00;96283.66;5041736;28;20959;-75
2022/04/09 01:26:24;;;;;;;5.97;4.03;;;0.70;99.90;;;-0.68;100.00;96287.78;5042101;28;20467;-72
2022/04/09 01:28:51;;;;;;;7.23;4.83;;;0.70;99.90;;;-0.60;100.00;96288.50;5045761;28;20469;-71
2022/04/09 01:31:19;;;;;;;7.20;4.90;;;0.80;99.90;;;-0.69;100.00;96288.78;5041164;28;20493;-72
2022/04/09 01:33:46;;;;;;;15.00;8.20;;;0.80;99.90;;;-0.45;100.00;96311.50;5043932;28;20449;-71
2022/04/09 01:36:14;;;;;;;20.07;10.57;;;0.90;99.90;;;-1.05;100.00;96247.97;5038573;28;21035;-71
2022/04/09 01:38:41;;;;;;;25.00;11.27;;;0.90;99.90;;;-0.67;100.00;96345.97;5041890;28;20462;-73
2022/04/09 01:41:10;;;;;;;16.43;8.00;;;0.90;99.90;;;-0.50;100.00;96351.06;5040532;28;20549;-72
2022/04/09 01:43:38;;;;;;;8.60;5.83;;;0.90;99.90;;;-0.48;100.00;96349.84;5035439;28;20490;-72
2022/04/09 01:46:05;;;;;;;6.43;5.27;;;0.90;99.90;;;-0.52;100.00;96369.00;5043105;28;20484;-72
2022/04/09 01:48:32;;;;;;;6.60;5.00;;;0.90;99.90;;;-0.59;100.00;96356.47;5036759;28;20446;-71
2022/04/09 01:50:59;;;;;;;5.23;4.63;;;0.90;99.90;;;-0.48;100.00;96363.09;5039816;28;20460;-72
2022/04/09 01:53:26;;;;;;;5.43;4.93;;;0.90;99.90;;;-0.54;100.00;96360.38;5038097;28;20453;-71
2022/04/09 01:55:53;;;;;;;7.60;5.00;;;0.90;99.90;;;-0.45;100.00;96391.13;5038622;28;20546;-72
2022/04/09 01:58:21;;;;;;;5.63;5.03;;;1.00;99.90;;;-0.49;100.00;96400.47;5033810;28;20976;-73
2022/04/09 02:00:48;;;;;;;6.10;5.50;;;0.90;99.90;;;-0.40;100.00;96417.91;5034275;28;20569;-71
2022/04/09 02:03:15;;;;;;;7.03;5.40;;;1.00;99.90;;;-0.35;100.00;96427.97;5036439;28;20488;-72
2022/04/09 02:05:42;;;;;;;8.43;5.20;;;1.00;99.90;;;-0.23;100.00;96430.97;5037114;28;21333;-72
2022/04/09 02:08:09;;;;;;;9.73;6.50;;;1.10;99.90;;;-0.32;100.00;96449.66;5039634;28;20983;-72
2022/04/09 02:10:37;;;;;;;7.37;5.50;;;1.10;99.90;;;-0.25;100.00;96459.53;5051575;28;20463;-72
2022/04/09 02:13:05;;;;;;;8.60;6.53;;;1.10;99.90;;;-0.25;100.00;96483.44;5035937;28;20464;-72
2022/04/09 02:15:33;;;;;;;11.40;7.40;;;1.10;99.90;;;-0.29;100.00;96486.47;5040702;28;20465;-73
2022/04/09 02:18:00;;;;;;;9.73;7.23;;;1.10;99.90;;;-0.24;100.00;96482.41;5035756;28;20557;-73
2022/04/09 02:20:27;;;;;;;9.50;7.50;;;1.10;99.90;;;-0.72;100.00;96435.88;5030227;28;20461;-72
2022/04/09 02:22:55;;;;;;;10.17;7.57;;;1.10;99.90;;;-0.31;100.00;96509.72;5037327;28;20524;-71
2022/04/09 02:25:22;;;;;;;11.90;7.60;;;1.10;99.90;;;-0.27;100.00;96517.31;5040745;28;21802;-73
2022/04/09 02:27:49;;;;;;;12.20;7.20;;;1.10;99.90;;;-0.25;100.00;96533.88;5047794;28;20479;-71
2022/04/09 02:30:16;;;;;;;9.80;7.20;;;1.20;99.90;;;-0.55;100.00;96480.78;5044504;28;20465;-72
2022/04/09 02:32:46;;;;;;;10.07;7.60;;;1.20;99.90;;;-0.23;100.00;96540.66;5034978;28;20457;-71
2022/04/09 02:35:14;;;;;;;13.23;8.50;;;1.20;99.90;;;-0.14;100.00;96549.34;5036059;28;20541;-72
2022/04/09 02:37:41;;;;;;;11.10;7.73;;;1.20;99.90;;;-0.19;100.00;96562.34;5041424;28;20517;-72
2022/04/09 02:40:12;;;;;;;10.80;7.63;;;1.20;99.90;;;-0.15;100.00;96571.59;5049332;28;20889;-72
2022/04/09 02:42:41;;;;;;;13.83;8.93;;;1.20;99.90;;;-0.21;100.00;96561.72;5053234;28;20931;-70
2022/04/09 02:45:11;;;;;;;12.30;7.90;;;1.20;99.90;;;-0.33;100.00;96545.41;5047367;28;20469;-72
2022/04/09 02:47:38;;;;;;;11.57;7.90;;;1.20;99.90;;;-0.18;100.00;96593.22;5048858;28;20465;-73
2022/04/09 02:50:08;;;;;;;14.90;7.47;;;1.20;99.90;;;-0.19;100.00;96604.84;5046849;28;20519;-70
2022/04/09 02:52:37;;;;;;;9.43;7.30;;;1.20;99.90;;;-0.13;100.00;96606.75;5046395;28;20674;-70
2022/04/09 02:55:06;;;;;;;13.00;7.40;;;1.30;99.90;;;-0.19;100.00;96616.25;5034695;28;21020;-72
2022/04/09 02:57:34;;;;;;;12.23;7.57;;;1.30;99.90;;;-0.13;100.00;96621.88;5039097;28;21148;-68
2022/04/09 03:00:02;;;;;;;10.33;8.00;;;1.30;99.90;;;-0.23;100.00;96606.19;5042721;28;20465;-68
2022/04/09 03:02:29;;;;;;;12.67;8.50;;;1.30;99.90;;;-0.53;100.00;96583.09;5046732;28;20564;-70
2022/04/09 03:04:56;;;;;;;11.53;8.10;;;1.30;99.90;;;-0.35;100.00;96627.88;5043486;28;20481;-71
2022/04/09 03:07:25;;;;;;;12.13;9.40;;;1.30;99.90;;;-0.04;100.00;96663.25;5064449;28;20459;-71
2022/04/09 03:09:52;;;;;;;11.93;8.37;;;1.40;99.90;;;0.01;100.00;96671.50;5038717;28;20538;-70
2022/04/09 03:12:19;;;;;;;12.63;9.50;;;1.40;99.90;;;-0.02;100.00;96675.34;5037624;28;20580;-70
2022/04/09 03:14:46;;;;;;;15.60;10.40;;;1.50;99.90;;;-0.55;100.00;96593.06;5048160;28;20976;-70
2022/04/09 03:17:13;;;;;;;17.43;11.03;;;1.40;99.90;;;0.08;100.00;96695.53;5047142;28;20472;-69
2022/04/09 03:19:40;;;;;;;14.27;9.90;;;1.40;99.90;;;0.05;100.00;96699.34;5050062;28;20531;-70
2022/04/09 03:22:08;;;;;;;13.93;10.00;;;1.50;99.90;;;0.14;100.00;96718.69;5035445;28;20457;-70
2022/04/09 03:24:36;;;;;;;13.33;10.50;;;1.50;99.90;;;0.03;100.00;96705.84;5042724;28;20449;-70
2022/04/09 03:27:04;;;;;;;17.13;10.67;;;1.50;99.90;;;-0.10;100.00;96696.66;5048504;28;21326;-70
2022/04/09 03:29:31;;;;;;;18.87;10.50;;;1.50;99.90;;;0.13;100.00;96738.28;5045420;28;21004;-70
2022/04/09 03:32:00;;;;;;;17.67;12.23;;;1.50;99.90;;;0.06;100.00;96726.72;5043440;28;20461;-69
2022/04/09 03:34:27;;;;;;;17.70;11.70;;;1.50;99.90;;;-0.38;100.00;96653.94;5039503;28;21244;-70
2022/04/09 03:36:54;;;;;;;15.60;11.67;;;1.60;99.90;;;0.22;100.00;96747.81;5041788;28;20567;-72
2022/04/09 03:39:21;;;;;;;19.20;11.57;;;1.60;99.90;;;0.22;100.00;96757.63;5044121;28;20549;-69
2022/04/09 03:41:49;;;;;;;19.00;12.43;;;1.60;99.90;;;0.19;100.00;96800.50;5058393;28;20515;-70
2022/04/09 03:44:16;;;;;;;17.30;13.30;;;1.60;99.90;;;0.25;100.00;96794.47;5042452;28;20473;-72
2022/04/09 03:46:43;;;;;;;16.67;11.53;;;1.60;99.90;;;0.07;100.00;96776.19;5044298;28;20488;-71
2022/04/09 03:49:11;;;;;;;19.63;14.53;;;1.60;99.90;;;0.21;100.00;96807.28;5047029;28;20564;-71
2022/04/09 03:51:38;;;;;;;18.77;14.37;;;1.60;99.90;;;0.26;100.00;96802.28;5036818;28;20457;-72
2022/04/09 03:54:05;;;;;;;18.80;13.90;;;1.60;99.90;;;0.22;100.00;96800.16;5048177;28;21231;-71
2022/04/09 03:56:32;;;;;;;17.90;13.93;;;1.60;99.90;;;0.25;100.00;96811.25;5046515;28;21300;-71
2022/04/09 03:59:01;;;;;;;18.80;13.87;;;1.60;99.90;;;-0.44;100.00;96732.44;5058788;28;20539;-71
2022/04/09 04:01:28;;;;;;;24.40;16.33;;;1.60;99.90;;;0.10;100.00;96807.72;5041024;28;20502;-72
2022/04/09 04:03:55;;;;;;;21.60;14.40;;;1.60;99.90;;;0.32;100.00;96842.41;5056570;28;20762;-74
2022/04/09 04:06:22;;;;;;;20.77;14.80;;;1.70;99.90;;;0.08;100.00;96805.22;5034034;28;20638;-72
2022/04/09 04:08:49;;;;;;;22.60;15.07;;;1.70;99.90;;;0.25;100.00;96832.50;5026411;28;20511;-73
2022/04/09 04:11:16;;;;;;;22.23;15.97;;;1.70;99.90;;;-0.14;100.00;96775.03;5037907;28;20465;-73
2022/04/09 04:13:43;;;;;;;21.87;15.23;;;1.70;99.90;;;0.34;100.00;96859.00;5044919;28;20565;-74
2022/04/09 04:16:12;;;;;;;27.33;15.07;;;1.70;99.90;;;0.07;100.00;96831.97;5037155;28;21043;-75
2022/04/09 04:18:39;;;;;;;21.07;14.40;;;1.70;99.90;;;0.39;100.00;96875.25;5042478;28;20768;-72
2022/04/09 04:21:06;;;;;;;20.83;15.73;;;1.70;99.90;;;0.35;100.00;96900.50;5035806;28;20960;-72
2022/04/09 04:23:33;;;;;;;22.43;15.80;;;1.70;99.90;;;0.26;100.00;96897.09;5041944;28;20545;-72
2022/04/09 04:26:00;;;;;;;20.77;15.67;;;1.70;99.90;;;0.25;100.00;96917.53;5042954;28;20461;-71
2022/04/09 04:28:27;;;;;;;20.53;15.93;;;1.70;99.90;;;0.25;100.00;96912.22;5044097;28;20587;-72
2022/04/09 04:30:54;;;;;;;23.20;14.60;;;1.70;99.90;;;0.19;100.00;96918.22;5041248;28;20618;-71
2022/04/09 04:33:22;;;;;;;20.90;15.83;;;1.60;99.90;;;0.10;100.00;96921.94;5021622;28;20450;-72
2022/04/09 04:35:50;;;;;;;21.80;15.73;;;1.60;99.90;;;0.15;100.00;96940.84;5038224;28;20502;-72
2022/04/09 04:38:17;;;;;;;24.30;17.80;;;1.60;99.90;;;0.22;100.00;96944.44;5039164;28;20496;-72
2022/04/09 04:40:44;;;;;;;26.93;16.77;;;1.60;99.90;;;0.23;100.00;96953.22;5034790;28;20468;-72
2022/04/09 04:43:11;;;;;;;25.50;17.40;;;1.60;99.90;;;0.28;100.00;96951.72;5045143;28;20499;-72
2022/04/09 04:45:39;;;;;;;22.70;17.30;;;1.70;99.90;;;0.29;100.00;96965.81;5036868;28;20462;-71
2022/04/09 04:48:06;;;;;;;25.27;16.90;;;1.70;99.90;;;0.26;100.00;96967.00;5039212;28;20465;-71
2022/04/09 04:50:37;;;;;;;21.30;15.90;;;1.70;99.90;;;0.16;100.00;96971.72;5038407;28;20465;-72
2022/04/09 04:53:04;;;;;;;23.80;16.63;;;1.60;99.90;;;0.27;99.86;96995.22;5042338;28;20460;-72
2022/04/09 04:55:31;;;;;;;23.77;17.27;;;1.70;99.90;;;0.22;99.72;96997.56;5042872;28;20456;-72
2022/04/09 04:58:00;;;;;;;23.83;15.80;;;1.60;99.90;;;0.21;99.77;97006.53;5043201;28;20476;-74
2022/04/09 05:00:27;;;;;;;23.20;16.43;;;1.60;99.90;;;0.17;99.16;96999.94;5035532;28;20490;-72
2022/04/09 05:02:54;;;;;;;24.00;17.10;;;1.60;99.90;;;0.11;99.67;97000.63;5044210;28;20800;-73
2022/04/09 05:05:21;;;;;;;24.80;15.90;;;1.50;99.90;;;-0.38;99.68;96944.09;5031915;28;20463;-73
2022/04/09 05:07:52;;;;;;;24.47;17.47;;;1.50;99.90;;;0.16;99.97;97008.09;5048366;28;20529;-74
2022/04/09 05:10:21;;;;;;;24.10;17.93;;;1.50;99.90;;;0.01;99.23;97010.63;5044958;28;20470;-71
2022/04/09 05:12:49;;;;;;;24.53;16.60;;;1.50;99.90;;;-0.62;99.86;96918.44;5039810;28;20486;-72
2022/04/09 05:15:18;;;;;;;28.47;17.23;;;1.50;99.90;;;0.06;100.00;97018.91;5043178;28;20461;-75
2022/04/09 05:17:45;;;;;;;24.47;18.37;;;1.50;99.90;;;0.20;99.67;97023.47;5045518;28;20502;-72
2022/04/09 05:20:16;;;;;;;27.17;17.27;;;1.60;99.90;;;0.27;99.56;97032.44;5045097;28;20461;-74
2022/04/09 05:22:46;;;;;;;24.53;17.63;;;1.60;99.90;;;0.10;99.31;97006.94;5043991;28;20559;-78
2022/04/09 05:25:19;;;;;;;23.90;18.03;;;1.70;99.90;;;0.28;98.58;97023.44;5045716;28;20452;-79
2022/04/09 05:27:46;;;;;;;20.40;15.00;;;1.80;99.90;;;0.33;97.96;97030.91;5055544;28;20476;-79
2022/04/09 05:30:14;;;;;;;18.80;14.37;;;1.80;99.90;;;0.54;97.95;97056.88;5044483;28;20932;-81
2022/04/09 05:32:41;;;;;;;25.33;17.60;;;1.90;99.90;;;0.59;96.81;97060.81;5059138;28;20476;-80
2022/04/09 05:35:09;;;;;;;20.00;15.33;;;2.00;99.90;;;0.46;96.75;97051.59;5039811;28;20449;-81
2022/04/09 05:37:36;;;;;;;25.50;16.10;;;2.00;99.90;;;0.63;97.19;97073.59;5039407;28;20482;-80
2022/04/09 05:40:05;;;;;;;25.47;16.93;;;2.00;99.90;;;0.72;96.54;97074.38;5041358;28;20551;-79
2022/04/09 05:42:34;;;;;;;22.60;15.80;;;2.10;99.90;;;0.88;95.99;97080.59;5036079;28;20462;-77
2022/04/09 05:45:01;;;;;;;21.03;15.43;;;2.20;99.90;;;1.06;96.00;97091.75;5059342;28;20568;-80
2022/04/09 05:47:29;;;;;;;24.43;15.83;;;2.40;99.90;;;1.03;95.21;97100.09;5044021;28;20452;-79
2022/04/09 05:49:58;;;;;;;20.23;15.30;;;2.40;99.90;;;1.04;95.44;97101.75;5043350;28;20474;-80
2022/04/09 05:52:26;;;;;;;22.50;15.83;;;2.40;99.90;;;1.06;94.96;97102.41;5063036;28;20453;-76
2022/04/09 05:54:53;;;;;;;15.60;12.57;;;2.40;99.90;;;0.98;94.40;97108.59;5056681;28;20460;-78
2022/04/09 05:57:20;;;;;;;19.57;13.93;;;2.40;99.90;;;0.99;94.90;97120.09;5054615;28;20614;-78
2022/04/09 05:59:49;;;;;;;23.47;14.90;;;2.40;99.90;;;1.05;95.28;97130.00;5039609;28;20487;-80
2022/04/09 06:02:16;;;;;;;18.60;13.90;;;2.40;99.90;;;0.44;94.65;97036.81;5022466;28;20981;-77
2022/04/09 06:04:43;;;;;;;23.17;15.43;;;2.40;99.90;;;1.17;94.92;97126.94;5038322;28;20459;-80
2022/04/09 06:07:13;;;;;;;21.97;13.97;;;2.50;99.90;;;1.16;93.92;97135.94;5042441;28;20948;-80
2022/04/09 06:09:41;;;;;;;20.77;14.90;;;2.50;99.90;;;1.17;93.57;97137.59;5037754;28;20548;-78
2022/04/09 06:12:09;;;;;;;19.13;14.50;;;2.60;99.90;;;0.79;93.08;97072.66;5039308;28;20475;-77
2022/04/09 06:14:36;;;;;;;16.10;12.30;;;2.60;99.90;;;1.24;92.71;97154.50;5042912;28;20908;-78
2022/04/09 06:17:06;;;;;;;16.57;13.53;;;2.70;99.20;;;1.28;92.93;97150.47;5054930;28;20543;-79
2022/04/09 06:19:35;;;;;;;21.00;13.53;;;2.70;99.90;;;1.42;92.66;97168.31;5037715;28;20477;-79
2022/04/09 06:22:02;;;;;;;16.93;13.10;;;2.70;99.90;;;1.46;92.12;97162.69;5046241;28;20865;-79
2022/04/09 06:24:29;;;;;;;16.50;12.33;;;2.80;98.30;;;1.41;91.53;97176.50;5037940;28;20482;-79
2022/04/09 06:26:56;;;;;;;17.73;12.40;;;2.80;96.70;;;1.22;91.42;97148.53;5053507;28;20566;-79
2022/04/09 06:29:23;;;;;;;21.20;14.20;;;2.80;96.80;;;1.10;91.47;97126.84;5044530;28;20555;-78
2022/04/09 06:31:50;;;;;;;14.97;12.00;;;2.80;97.10;;;1.55;91.78;97182.88;5042057;28;20945;-80
2022/04/09 06:34:19;;;;;;;16.43;11.97;;;2.80;97.80;;;1.47;90.88;97174.97;5041663;28;20478;-81
2022/04/09 06:36:46;;;;;;;15.73;12.00;;;2.90;96.00;;;1.50;90.26;97171.94;5049676;28;20922;-78
2022/04/09 06:39:13;;;;;;;17.73;11.17;;;3.00;95.20;;;1.55;90.41;97186.38;5054193;28;20956;-78
2022/04/09 06:41:42;;;;;;;26.13;14.23;;;3.00;94.90;;;1.66;90.55;97197.59;5035118;28;20561;-77
2022/04/09 06:44:11;;;;;;;12.20;10.57;;;3.00;95.20;;;1.70;89.48;97169.63;5041478;28;20449;-80
2022/04/09 06:46:43;;;;;;;20.10;11.50;;;3.10;94.10;;;1.81;89.35;97198.47;5043649;28;21032;-78
2022/04/09 06:49:11;;;;;;;18.53;11.47;;;3.20;93.80;;;1.96;89.19;97211.84;5037946;28;20468;-79
2022/04/09 06:51:40;;;;;;;12.70;9.67;;;3.30;93.40;;;1.78;87.04;97168.72;5061564;28;20949;-77
2022/04/09 06:54:07;;;;;;;15.23;12.17;;;3.40;91.70;;;2.08;87.09;97180.25;5049040;28;20485;-79
2022/04/09 06:56:34;;;;;;;15.30;11.37;;;3.60;91.60;;;1.98;86.31;97174.38;5041597;28;20978;-78
2022/04/09 06:59:01;;;;;;;20.73;13.73;;;3.70;90.60;;;2.48;86.14;97240.53;5047709;28;20501;-79
2022/04/09 07:01:28;;;;;;;18.63;11.53;;;3.70;90.90;;;2.32;86.38;97241.50;5042216;28;20506;-76
2022/04/09 07:03:55;;;;;;;14.63;11.47;;;3.70;90.60;;;2.35;86.41;97251.78;5056215;28;20557;-77
2022/04/09 07:06:23;;;;;;;16.20;12.73;;;3.70;90.60;;;2.57;86.55;97254.59;5039003;28;20534;-78
2022/04/09 07:08:51;;;;;;;16.50;11.17;;;3.80;91.90;;;2.61;84.73;97254.06;5047363;28;20586;-79
2022/04/09 07:11:18;;;;;;;20.43;12.53;;;3.90;89.60;;;2.72;85.02;97258.09;5047401;28;20964;-80
2022/04/09 07:13:45;;;;;;;15.17;11.97;;;4.00;90.50;;;2.86;84.85;97252.94;5045106;28;20477;-78
2022/04/09 07:16:12;;;;;;;13.57;10.77;;;4.10;90.10;;;2.94;83.76;97272.34;5043980;28;20479;-78
2022/04/09 07:18:39;;;;;;;21.50;11.97;;;4.30;87.30;;;3.10;83.52;97257.97;5046303;28;20497;-77
2022/04/09 07:21:07;;;;;;;15.47;10.60;;;4.40;87.90;;;3.31;81.63;97263.56;5045128;28;20443;-79
2022/04/09 07:23:34;;;;;;;12.73;9.50;;;4.60;84.40;;;3.35;80.79;97273.69;5048868;28;20541;-79
2022/04/09 07:26:03;;;;;;;13.50;10.23;;;4.70;83.80;;;3.29;80.32;97278.94;5042355;28;20595;-80
2022/04/09 07:28:30;;;;;;;13.90;10.23;;;4.60;82.80;;;3.07;81.69;97286.88;5052501;28;21382;-81
2022/04/09 07:30:57;;;;;;;11.87;9.60;;;4.40;83.70;;;3.06;81.63;97285.25;5040728;28;20878;-79
2022/04/09 07:33:24;;;;;;;11.70;10.27;;;4.40;84.80;;;3.60;81.34;97281.34;5046441;28;20471;-79
2022/04/09 07:35:53;;;;;;;12.90;10.10;;;4.70;85.50;;;4.29;77.88;97288.97;5054031;28;20495;-79
2022/04/09 07:38:20;;;;;;;13.20;10.03;;;5.30;81.80;;;3.95;78.16;97294.06;5040348;28;20473;-80
2022/04/09 07:40:47;;;;;;;9.57;8.03;;;5.30;80.60;;;3.64;78.46;97292.47;5052800;28;20886;-77
2022/04/09 07:43:17;;;;;;;11.63;8.27;;;5.00;80.50;;;3.74;77.76;97302.88;5046446;28;20528;-78
2022/04/09 07:45:44;;;;;;;14.70;8.20;;;5.10;80.30;;;3.66;78.29;97304.63;5045068;28;20489;-77
2022/04/09 07:48:11;;;;;;;13.73;8.40;;;5.00;80.50;;;3.52;78.18;97297.50;5050120;28;20553;-79
2022/04/09 07:50:39;;;;;;;14.27;8.93;;;4.90;80.20;;;3.46;78.35;97323.09;5048205;28;20529;-79
2022/04/09 07:53:09;;;;;;;9.63;7.60;;;4.70;80.30;;;3.55;77.13;97289.09;5047228;28;20487;-80
2022/04/09 07:55:36;;;;;;;10.70;8.30;;;5.00;80.10;;;3.96;76.82;97306.41;5053495;28;20835;-78
2022/04/09 07:58:04;;;;;;;13.93;8.23;;;5.20;79.80;;;4.26;75.50;97322.31;5059712;28;20754;-79
2022/04/09 08:00:32;;;;;;;11.57;7.67;;;5.50;79.40;;;3.95;75.31;97318.09;5053113;28;20679;-78
2022/04/09 08:02:59;;;;;;;15.20;8.10;;;5.40;77.90;;;3.60;77.21;97323.25;5050210;28;20507;-78
2022/04/09 08:05:26;;;;;;;9.70;7.10;;;5.00;78.90;;;3.72;77.54;97328.97;5049981;28;20449;-78
2022/04/09 08:07:53;;;;;;;9.60;6.97;;;5.10;79.40;;;3.81;76.90;97331.31;5051864;28;20463;-77
2022/04/09 08:10:21;;;;;;;9.10;7.60;;;5.20;78.70;;;4.10;75.88;97337.59;5055343;28;20526;-81
2022/04/09 08:12:49;;;;;;;9.97;8.10;;;5.40;78.60;;;4.04;76.62;97318.81;5039588;28;20458;-80
2022/04/09 08:15:18;;;;;;;14.00;7.93;;;5.40;79.30;;;4.22;76.75;97331.72;5047916;28;20459;-80
2022/04/09 08:17:47;;;;;;;13.63;8.20;;;5.50;79.40;;;3.96;76.73;97333.94;5039415;28;20479;-78
2022/04/09 08:20:14;;;;;;;10.00;7.00;;;5.30;78.90;;;4.00;76.68;97344.25;5034252;28;20455;-74
2022/04/09 08:22:42;;;;;;;12.17;8.93;;;5.30;78.80;;;4.21;76.26;97338.91;5046327;28;20460;-85
2022/04/09 08:25:10;;;;;;;10.90;4.97;;;5.40;79.50;;;4.11;75.04;97346.41;5043544;28;21261;-73
2022/04/09 08:27:38;;;;;;;11.60;7.90;;;5.50;77.30;;;3.85;75.83;97346.97;5035417;28;21017;-80
2022/04/09 08:30:08;;;;;;;9.93;7.47;;;5.20;77.90;;;4.02;76.41;97343.06;5035832;28;20453;-71
2022/04/09 08:32:36;;;;;;;13.50;7.73;;;5.30;78.60;;;4.58;73.94;97351.38;5034052;28;20466;-72
2022/04/09 08:35:05;;;;;;;11.30;7.40;;;5.60;78.00;;;4.76;72.61;97322.28;5039539;28;20486;-69
2022/04/09 08:37:32;;;;;;;8.87;6.93;;;6.00;76.70;;;5.38;70.87;97351.91;5041796;28;20466;-77
2022/04/09 08:39:59;;;;;;;11.23;5.07;;;6.50;75.40;;;5.16;71.14;97353.00;5034952;28;20466;-71
2022/04/09 08:42:30;;;;;;;7.40;6.10;;;6.50;74.60;;;4.98;70.49;97359.69;5045732;28;20465;-75
2022/04/09 08:44:57;;;;;;;11.63;6.23;;;6.30;74.40;;;4.93;70.31;97360.28;5047600;28;20447;-74
2022/04/09 08:47:28;;;;;;;10.60;6.97;;;6.20;73.90;;;4.95;69.07;97368.94;5044925;28;20869;-74
2022/04/09 08:49:55;;;;;;;8.40;6.30;;;6.20;72.80;;;4.67;70.30;97355.56;5046269;28;20464;-73
2022/04/09 08:52:25;;;;;;;9.10;6.00;;;6.10;73.50;;;5.00;69.70;97365.69;5044236;28;20467;-73
2022/04/09 08:54:52;;;;;;;12.50;7.07;;;6.20;73.80;;;5.02;68.79;97379.69;5041819;28;20485;-73
2022/04/09 08:57:22;;;;;;;6.30;5.70;;;6.30;73.30;;;5.05;69.01;97379.31;5042269;28;20453;-73
2022/04/09 08:59:51;;;;;;;11.07;6.40;;;6.20;73.30;;;5.23;68.60;97373.44;5044041;28;20569;-74
2022/04/09 09:02:20;;;;;;;9.10;6.23;;;6.30;72.80;;;5.10;68.81;97387.59;5037112;28;20463;-74
2022/04/09 09:04:47;;;;;;;6.57;5.20;;;6.30;72.80;;;4.74;68.29;97324.31;5033116;28;20459;-73
2022/04/09 09:07:20;;;;;;;9.30;6.40;;;6.30;72.20;;;4.89;68.99;97398.34;5044484;28;20637;-73
2022/04/09 09:09:50;;;;;;;15.77;6.10;;;6.10;72.30;;;4.94;68.43;97387.91;5042594;28;20464;-73
2022/04/09 09:12:29;;;;;;;7.63;5.80;;;6.20;72.40;;;5.30;69.35;97399.44;5026207;28;20492;-72
2022/04/09 09:14:57;;;;;;;8.60;5.10;;;6.40;72.80;;;5.06;66.62;97342.66;5040826;28;20855;-72
2022/04/09 09:17:31;;;;;;;9.10;5.10;;;6.70;71.00;;;5.34;66.70;97401.53;5048378;28;20480;-79
2022/04/09 09:19:59;;;;;;;7.20;5.37;;;6.60;70.90;;;5.34;66.78;97408.75;5046991;28;21232;-78
2022/04/09 09:22:37;;;;;;;9.77;5.80;;;6.50;70.80;;;5.52;66.96;97395.66;5046678;28;20917;-77
2022/04/09 09:25:09;;;;;;;8.80;4.07;;;6.70;70.90;;;5.41;65.01;97387.38;5035277;28;20460;-76
2022/04/09 09:27:37;;;;;;;7.13;4.97;;;6.70;68.90;;;5.27;66.44;97414.06;5033933;28;20478;-71
2022/04/09 09:30:05;;;;;;;7.83;4.73;;;6.50;70.00;;;5.41;66.13;97414.16;5045636;28;20469;-71
2022/04/09 09:32:34;;;;;;;10.93;4.90;;;6.60;69.60;;;5.30;66.66;97413.69;5043572;28;20461;-71
2022/04/09 09:35:01;;;;;;;6.17;4.67;;;6.50;69.70;;;5.20;67.04;97415.88;5039659;28;20458;-71
2022/04/09 09:37:31;;;;;;;8.20;5.77;;;6.50;70.30;;;5.07;66.46;97420.09;5040130;28;20463;-72
2022/04/09 09:39:59;;;;;;;6.47;5.20;;;6.30;69.60;;;5.13;67.05;97425.72;5050007;28;20480;-71
2022/04/09 09:42:27;;;;;;;5.87;4.43;;;6.20;70.10;;;5.19;65.99;97432.97;5050696;28;20515;-70
2022/04/09 09:44:55;;;;;;;5.47;3.83;;;6.30;69.60;;;5.46;63.31;97427.78;5048935;28;20989;-73
2022/04/09 09:47:22;;;;;;;7.93;4.27;;;6.60;68.00;;;5.63;63.86;97423.75;5049556;28;20485;-72
2022/04/09 09:49:55;;;;;;;7.60;5.00;;;6.70;67.80;;;5.58;63.44;97438.75;5045444;28;21430;-71
2022/04/09 09:52:27;;;;;;;7.30;5.20;;;6.80;67.50;;;5.66;64.84;97423.34;5042682;28;20617;-72
2022/04/09 09:54:59;;;;;;;4.70;3.57;;;6.80;68.50;;;5.48;64.68;97423.88;5037444;28;21222;-73
2022/04/09 09:57:28;;;;;;;6.43;4.83;;;6.70;68.10;;;5.64;64.82;97417.38;5035341;28;20444;-72
2022/04/09 09:59:58;;;;;;;5.87;5.03;;;6.80;68.20;;;5.96;64.37;97428.44;5038363;28;20481;-72
2022/04/09 10:02:27;;;;;;;5.97;5.30;;;7.10;68.30;;;5.57;63.83;97392.41;5038132;28;20456;-72
2022/04/09 10:04:54;;;;;;;9.97;5.00;;;6.90;67.50;;;5.88;62.49;97420.56;5057632;28;20460;-72
2022/04/09 10:07:24;;;;;;;6.07;4.10;;;7.10;66.80;;;5.81;63.25;97408.97;5046639;28;20459;-73
2022/04/09 10:09:53;;;;;;;7.07;4.80;;;7.00;66.70;;;6.17;62.37;97415.97;5037464;28;20458;-74
2022/04/09 10:12:22;;;;;;;6.53;4.77;;;7.30;66.80;;;6.07;62.65;97418.19;5060511;28;21287;-73
2022/04/09 10:14:54;;;;;;;6.00;4.00;;;7.20;66.60;;;5.99;61.39;97415.66;5048643;28;20491;-72
2022/04/09 10:17:23;;;;;;;9.03;3.73;;;7.20;65.40;;;5.79;61.98;97419.09;5047554;28;20864;-73
2022/04/09 10:19:57;;;;;;;4.40;3.70;;;7.00;65.70;;;6.18;61.98;97417.63;5039701;28;20550;-72
2022/04/09 10:22:26;;;;;;;8.60;3.97;;;7.20;65.80;;;6.34;61.54;97424.47;5041168;28;20490;-73
2022/04/09 10:24:56;;;;;;;5.87;4.10;;;7.50;65.40;;;6.41;61.94;97423.66;5038272;28;20456;-73